sensor_id;sensor_type;location;lat;lon;timestamp;pressure;altitude;pressure_sealevel;temperature;humidity
32452;BME280;45528;52.102;5.242;2022-08-20T00:01:30;101185.0;;;26.48;61.37
32452;BME280;45528;52.102;5.242;2022-08-20T00:03:10;101184.0;;;26.47;61.48
32452;BME280;45528;52.102;5.242;2022-08-20T00:04:48;101180.0;;;26.47;61.52
32452;BME280;45528;52.102;5.242;2022-08-20T00:06:25;101185.0;;;26.47;61.58
32452;BME280;45528;52.102;5.242;2022-08-20T00:09:41;101186.0;;;26.47;61.61
32452;BME280;45528;52.102;5.242;2022-08-20T00:11:21;101184.0;;;26.47;61.61
32452;BME280;45528;52.102;5.242;2022-08-20T00:13:02;101188.0;;;26.51;61.54
32452;BME280;45528;52.102;5.242;2022-08-20T00:16:18;101184.0;;;26.53;61.47
32452;BME280;45528;52.102;5.242;2022-08-20T00:17:57;101186.0;;;26.56;61.49
32452;BME280;45528;52.102;5.242;2022-08-20T00:19:34;101193.0;;;26.53;61.64
32452;BME280;45528;52.102;5.242;2022-08-20T00:21:15;101188.0;;;26.55;61.51
32452;BME280;45528;52.102;5.242;2022-08-20T00:24:28;101191.0;;;26.53;61.55
32452;BME280;45528;52.102;5.242;2022-08-20T00:26:06;101192.0;;;26.49;61.57
32452;BME280;45528;52.102;5.242;2022-08-20T00:27:43;101192.0;;;26.49;61.41
32452;BME280;45528;52.102;5.242;2022-08-20T00:30:57;101189.0;;;26.5;61.48
32452;BME280;45528;52.102;5.242;2022-08-20T00:32:41;101186.0;;;26.5;61.58
32452;BME280;45528;52.102;5.242;2022-08-20T00:34:18;101186.0;;;26.49;61.6
32452;BME280;45528;52.102;5.242;2022-08-20T00:35:55;101186.0;;;26.51;61.67
32452;BME280;45528;52.102;5.242;2022-08-20T00:39:09;101188.0;;;26.5;61.6
32452;BME280;45528;52.102;5.242;2022-08-20T00:40:47;101191.0;;;26.53;61.51
32452;BME280;45528;52.102;5.242;2022-08-20T00:42:29;101194.0;;;26.54;61.52
32452;BME280;45528;52.102;5.242;2022-08-20T00:44:09;101194.0;;;26.53;61.7
32452;BME280;45528;52.102;5.242;2022-08-20T00:47:31;101195.0;;;26.53;61.7
32452;BME280;45528;52.102;5.242;2022-08-20T00:49:18;101191.0;;;26.55;61.53
32452;BME280;45528;52.102;5.242;2022-08-20T00:50:58;101190.0;;;26.56;61.53
32452;BME280;45528;52.102;5.242;2022-08-20T00:52:44;101196.0;;;26.54;61.51
32452;BME280;45528;52.102;5.242;2022-08-20T00:56:04;101194.0;;;26.52;61.53
32452;BME280;45528;52.102;5.242;2022-08-20T00:57:47;101200.0;;;26.49;61.58
32452;BME280;45528;52.102;5.242;2022-08-20T00:59:27;101198.0;;;26.45;61.7
32452;BME280;45528;52.102;5.242;2022-08-20T01:01:06;101197.0;;;26.44;61.7
32452;BME280;45528;52.102;5.242;2022-08-20T01:04:25;101194.0;;;26.48;61.46
32452;BME280;45528;52.102;5.242;2022-08-20T01:06:03;101192.0;;;26.48;61.34
32452;BME280;45528;52.102;5.242;2022-08-20T01:07:40;101189.0;;;26.47;61.52
32452;BME280;45528;52.102;5.242;2022-08-20T01:09:18;101193.0;;;26.48;61.52
32452;BME280;45528;52.102;5.242;2022-08-20T01:12:46;101195.0;;;26.49;61.33
32452;BME280;45528;52.102;5.242;2022-08-20T01:14:27;101198.0;;;26.51;61.45
32452;BME280;45528;52.102;5.242;2022-08-20T01:16:12;101201.0;;;26.5;61.27
32452;BME280;45528;52.102;5.242;2022-08-20T01:17:59;101198.0;;;26.49;61.37
32452;BME280;45528;52.102;5.242;2022-08-20T01:19:41;101199.0;;;26.44;60.42
32452;BME280;45528;52.102;5.242;2022-08-20T01:23:38;101197.0;;;26.4;61.64
32452;BME280;45528;52.102;5.242;2022-08-20T01:25:28;101190.0;;;26.34;61.71
32452;BME280;45528;52.102;5.242;2022-08-20T01:27:13;101190.0;;;26.18;61.95
32452;BME280;45528;52.102;5.242;2022-08-20T01:28:51;101195.0;;;26.18;61.76
32452;BME280;45528;52.102;5.242;2022-08-20T01:30:32;101194.0;;;26.17;61.95
32452;BME280;45528;52.102;5.242;2022-08-20T01:32:09;101192.0;;;26.12;62.28
32452;BME280;45528;52.102;5.242;2022-08-20T01:35:25;101187.0;;;26.04;62.17
32452;BME280;45528;52.102;5.242;2022-08-20T01:37:02;101195.0;;;25.94;62.36
32452;BME280;45528;52.102;5.242;2022-08-20T01:38:39;101200.0;;;25.9;62.17
32452;BME280;45528;52.102;5.242;2022-08-20T01:42:11;101198.0;;;25.86;62.6
32452;BME280;45528;52.102;5.242;2022-08-20T01:43:56;101198.0;;;25.9;62.62
32452;BME280;45528;52.102;5.242;2022-08-20T01:45:33;101197.0;;;25.89;62.62
32452;BME280;45528;52.102;5.242;2022-08-20T01:47:16;101198.0;;;25.83;62.84
32452;BME280;45528;52.102;5.242;2022-08-20T01:48:57;101196.0;;;25.76;63.16
32452;BME280;45528;52.102;5.242;2022-08-20T01:52:23;101193.0;;;25.76;63.32
32452;BME280;45528;52.102;5.242;2022-08-20T01:54:03;101199.0;;;25.73;63.42
32452;BME280;45528;52.102;5.242;2022-08-20T01:55:40;101200.0;;;25.7;63.43
32452;BME280;45528;52.102;5.242;2022-08-20T01:57:19;101203.0;;;25.68;63.52
32452;BME280;45528;52.102;5.242;2022-08-20T02:00:40;101203.0;;;25.69;63.52
32452;BME280;45528;52.102;5.242;2022-08-20T02:02:17;101205.0;;;25.7;63.58
32452;BME280;45528;52.102;5.242;2022-08-20T02:03:55;101203.0;;;25.7;63.5
32452;BME280;45528;52.102;5.242;2022-08-20T02:07:14;101198.0;;;25.71;63.51
32452;BME280;45528;52.102;5.242;2022-08-20T02:08:54;101200.0;;;25.74;63.54
32452;BME280;45528;52.102;5.242;2022-08-20T02:10:32;101200.0;;;25.71;63.48
32452;BME280;45528;52.102;5.242;2022-08-20T02:12:11;101201.0;;;25.67;63.46
32452;BME280;45528;52.102;5.242;2022-08-20T02:15:29;101201.0;;;25.69;63.43
32452;BME280;45528;52.102;5.242;2022-08-20T02:17:06;101202.0;;;25.68;63.49
32452;BME280;45528;52.102;5.242;2022-08-20T02:18:43;101200.0;;;25.66;63.5
32452;BME280;45528;52.102;5.242;2022-08-20T02:20:26;101205.0;;;25.73;63.21
32452;BME280;45528;52.102;5.242;2022-08-20T02:24:00;101207.0;;;25.7;63.22
32452;BME280;45528;52.102;5.242;2022-08-20T02:25:38;101209.0;;;25.64;63.37
32452;BME280;45528;52.102;5.242;2022-08-20T02:27:18;101208.0;;;25.66;63.45
32452;BME280;45528;52.102;5.242;2022-08-20T02:28:55;101212.0;;;25.7;63.42
32452;BME280;45528;52.102;5.242;2022-08-20T02:32:13;101210.0;;;25.74;63.04
32452;BME280;45528;52.102;5.242;2022-08-20T02:33:49;101203.0;;;25.74;63.32
32452;BME280;45528;52.102;5.242;2022-08-20T02:35:27;101199.0;;;25.75;62.85
32452;BME280;45528;52.102;5.242;2022-08-20T02:37:04;101202.0;;;25.7;63.28
32452;BME280;45528;52.102;5.242;2022-08-20T02:40:21;101205.0;;;25.65;63.4
32452;BME280;45528;52.102;5.242;2022-08-20T02:41:58;101207.0;;;25.66;63.24
32452;BME280;45528;52.102;5.242;2022-08-20T02:43:35;101212.0;;;25.66;63.36
32452;BME280;45528;52.102;5.242;2022-08-20T02:46:52;101213.0;;;25.63;63.11
32452;BME280;45528;52.102;5.242;2022-08-20T02:48:28;101212.0;;;25.66;63.18
32452;BME280;45528;52.102;5.242;2022-08-20T02:50:10;101206.0;;;25.67;63.2
32452;BME280;45528;52.102;5.242;2022-08-20T02:51:47;101210.0;;;25.7;63.15
32452;BME280;45528;52.102;5.242;2022-08-20T02:55:03;101214.0;;;25.75;63.04
32452;BME280;45528;52.102;5.242;2022-08-20T02:56:39;101213.0;;;25.78;62.88
32452;BME280;45528;52.102;5.242;2022-08-20T02:58:16;101211.0;;;25.77;62.77
32452;BME280;45528;52.102;5.242;2022-08-20T03:01:32;101213.0;;;25.78;62.77
32452;BME280;45528;52.102;5.242;2022-08-20T03:03:09;101215.0;;;25.79;62.65
32452;BME280;45528;52.102;5.242;2022-08-20T03:04:47;101213.0;;;25.81;62.54
32452;BME280;45528;52.102;5.242;2022-08-20T03:06:23;101210.0;;;25.79;62.52
32452;BME280;45528;52.102;5.242;2022-08-20T03:09:37;101214.0;;;25.77;62.57
32452;BME280;45528;52.102;5.242;2022-08-20T03:11:14;101217.0;;;25.69;62.53
32452;BME280;45528;52.102;5.242;2022-08-20T03:12:52;101213.0;;;25.63;62.54
32452;BME280;45528;52.102;5.242;2022-08-20T03:16:06;101215.0;;;25.52;62.55
32452;BME280;45528;52.102;5.242;2022-08-20T03:17:42;101212.0;;;25.48;62.72
32452;BME280;45528;52.102;5.242;2022-08-20T03:19:18;101210.0;;;25.44;62.74
32452;BME280;45528;52.102;5.242;2022-08-20T03:20:55;101213.0;;;25.45;62.71
32452;BME280;45528;52.102;5.242;2022-08-20T03:24:07;101212.0;;;25.4;62.7
32452;BME280;45528;52.102;5.242;2022-08-20T03:25:45;101209.0;;;25.39;62.84
32452;BME280;45528;52.102;5.242;2022-08-20T03:27:23;101210.0;;;25.32;62.85
32452;BME280;45528;52.102;5.242;2022-08-20T03:30:37;101216.0;;;25.32;62.8
32452;BME280;45528;52.102;5.242;2022-08-20T03:32:15;101214.0;;;25.31;62.84
32452;BME280;45528;52.102;5.242;2022-08-20T03:33:51;101214.0;;;25.25;62.74
32452;BME280;45528;52.102;5.242;2022-08-20T03:37:07;101217.0;;;25.21;62.7
32452;BME280;45528;52.102;5.242;2022-08-20T03:38:43;101213.0;;;25.16;62.72
32452;BME280;45528;52.102;5.242;2022-08-20T03:40:23;101212.0;;;25.13;62.86
32452;BME280;45528;52.102;5.242;2022-08-20T03:42:02;101217.0;;;25.09;62.95
32452;BME280;45528;52.102;5.242;2022-08-20T03:45:17;101218.0;;;25.06;63.02
32452;BME280;45528;52.102;5.242;2022-08-20T03:46:55;101220.0;;;25.04;63.11
32452;BME280;45528;52.102;5.242;2022-08-20T03:48:31;101224.0;;;25.0;63.03
32452;BME280;45528;52.102;5.242;2022-08-20T03:51:47;101218.0;;;24.96;63.21
32452;BME280;45528;52.102;5.242;2022-08-20T03:53:23;101219.0;;;24.95;63.22
32452;BME280;45528;52.102;5.242;2022-08-20T03:54:59;101219.0;;;24.94;63.23
32452;BME280;45528;52.102;5.242;2022-08-20T03:56:35;101222.0;;;24.96;63.24
32452;BME280;45528;52.102;5.242;2022-08-20T03:59:51;101223.0;;;24.97;63.3
32452;BME280;45528;52.102;5.242;2022-08-20T04:01:27;101226.0;;;25.0;63.29
32452;BME280;45528;52.102;5.242;2022-08-20T04:03:04;101226.0;;;24.96;63.23
32452;BME280;45528;52.102;5.242;2022-08-20T04:06:18;101228.0;;;24.97;63.26
32452;BME280;45528;52.102;5.242;2022-08-20T04:07:55;101227.0;;;24.94;63.36
32452;BME280;45528;52.102;5.242;2022-08-20T04:09:32;101231.0;;;24.92;63.31
32452;BME280;45528;52.102;5.242;2022-08-20T04:11:09;101230.0;;;24.94;63.26
32452;BME280;45528;52.102;5.242;2022-08-20T04:14:21;101228.0;;;24.9;63.42
32452;BME280;45528;52.102;5.242;2022-08-20T04:16:00;101226.0;;;24.85;63.32
32452;BME280;45528;52.102;5.242;2022-08-20T04:17:39;101230.0;;;24.84;63.25
32452;BME280;45528;52.102;5.242;2022-08-20T04:20:53;101228.0;;;24.82;63.15
32452;BME280;45528;52.102;5.242;2022-08-20T04:22:30;101233.0;;;24.8;63.09
32452;BME280;45528;52.102;5.242;2022-08-20T04:24:06;101232.0;;;24.78;63.12
32452;BME280;45528;52.102;5.242;2022-08-20T04:27:21;101234.0;;;24.75;63.11
32452;BME280;45528;52.102;5.242;2022-08-20T04:28:57;101241.0;;;24.68;63.07
32452;BME280;45528;52.102;5.242;2022-08-20T04:30:34;101240.0;;;24.66;62.97
32452;BME280;45528;52.102;5.242;2022-08-20T04:32:11;101244.0;;;24.65;62.96
32452;BME280;45528;52.102;5.242;2022-08-20T04:35:23;101251.0;;;24.6;62.95
32452;BME280;45528;52.102;5.242;2022-08-20T04:37:00;101252.0;;;24.54;62.92
32452;BME280;45528;52.102;5.242;2022-08-20T04:38:36;101251.0;;;24.49;63.12
32452;BME280;45528;52.102;5.242;2022-08-20T04:42:55;101257.0;;;24.42;63.1
32452;BME280;45528;52.102;5.242;2022-08-20T04:46:09;101258.0;;;24.38;63.16
32452;BME280;45528;52.102;5.242;2022-08-20T04:47:46;101261.0;;;24.36;63.16
32452;BME280;45528;52.102;5.242;2022-08-20T04:49:25;101263.0;;;24.32;63.22
32452;BME280;45528;52.102;5.242;2022-08-20T04:51:02;101265.0;;;24.28;63.12
32452;BME280;45528;52.102;5.242;2022-08-20T04:54:15;101271.0;;;24.22;63.21
32452;BME280;45528;52.102;5.242;2022-08-20T04:55:52;101267.0;;;24.21;63.16
32452;BME280;45528;52.102;5.242;2022-08-20T04:57:37;101265.0;;;24.2;63.4
32452;BME280;45528;52.102;5.242;2022-08-20T05:00:55;101273.0;;;24.18;63.43
32452;BME280;45528;52.102;5.242;2022-08-20T05:02:32;101269.0;;;24.19;63.38
32452;BME280;45528;52.102;5.242;2022-08-20T05:04:08;101269.0;;;24.17;63.32
32452;BME280;45528;52.102;5.242;2022-08-20T05:05:45;101272.0;;;24.17;63.31
32452;BME280;45528;52.102;5.242;2022-08-20T05:08:59;101273.0;;;24.15;63.23
32452;BME280;45528;52.102;5.242;2022-08-20T05:10:38;101275.0;;;24.15;63.37
32452;BME280;45528;52.102;5.242;2022-08-20T05:12:17;101276.0;;;24.14;63.15
32452;BME280;45528;52.102;5.242;2022-08-20T05:13:55;101280.0;;;24.14;63.01
32452;BME280;45528;52.102;5.242;2022-08-20T05:17:07;101280.0;;;24.09;63.03
32452;BME280;45528;52.102;5.242;2022-08-20T05:18:45;101280.0;;;24.09;63.1
32452;BME280;45528;52.102;5.242;2022-08-20T05:20:22;101283.0;;;24.07;63.08
32452;BME280;45528;52.102;5.242;2022-08-20T05:23:36;101285.0;;;24.0;63.24
32452;BME280;45528;52.102;5.242;2022-08-20T05:25:14;101288.0;;;23.98;63.24
32452;BME280;45528;52.102;5.242;2022-08-20T05:26:50;101291.0;;;23.97;63.3
32452;BME280;45528;52.102;5.242;2022-08-20T05:30:10;101286.0;;;23.98;63.26
32452;BME280;45528;52.102;5.242;2022-08-20T05:31:47;101291.0;;;24.05;63.39
32452;BME280;45528;52.102;5.242;2022-08-20T05:33:24;101290.0;;;24.12;63.35
32452;BME280;45528;52.102;5.242;2022-08-20T05:35:02;101294.0;;;24.1;63.2
32452;BME280;45528;52.102;5.242;2022-08-20T05:38:21;101292.0;;;24.07;63.2
32452;BME280;45528;52.102;5.242;2022-08-20T05:39:59;101296.0;;;24.1;63.29
32452;BME280;45528;52.102;5.242;2022-08-20T05:41:37;101294.0;;;24.1;63.36
32452;BME280;45528;52.102;5.242;2022-08-20T05:43:14;101301.0;;;24.14;63.27
32452;BME280;45528;52.102;5.242;2022-08-20T05:46:28;101300.0;;;24.2;63.16
32452;BME280;45528;52.102;5.242;2022-08-20T05:48:05;101297.0;;;24.19;63.21
32452;BME280;45528;52.102;5.242;2022-08-20T05:49:43;101300.0;;;24.25;63.08
32452;BME280;45528;52.102;5.242;2022-08-20T05:52:55;101302.0;;;24.34;62.66
32452;BME280;45528;52.102;5.242;2022-08-20T05:54:31;101301.0;;;24.33;62.71
32452;BME280;45528;52.102;5.242;2022-08-20T05:56:09;101305.0;;;24.47;61.97
32452;BME280;45528;52.102;5.242;2022-08-20T05:59:24;101308.0;;;24.48;62.25
32452;BME280;45528;52.102;5.242;2022-08-20T06:01:01;101309.0;;;24.54;61.71
32452;BME280;45528;52.102;5.242;2022-08-20T06:06:21;101316.0;;;24.62;61.79
32452;BME280;45528;52.102;5.242;2022-08-20T06:09:35;101316.0;;;24.67;61.48
32452;BME280;45528;52.102;5.242;2022-08-20T06:11:12;101317.0;;;24.7;61.3
32452;BME280;45528;52.102;5.242;2022-08-20T06:12:48;101313.0;;;24.78;60.83
32452;BME280;45528;52.102;5.242;2022-08-20T06:16:01;101314.0;;;24.84;60.43
32452;BME280;45528;52.102;5.242;2022-08-20T06:17:38;101312.0;;;24.85;60.46
32452;BME280;45528;52.102;5.242;2022-08-20T06:19:15;101313.0;;;24.94;59.74
32452;BME280;45528;52.102;5.242;2022-08-20T06:20:52;101316.0;;;25.04;59.27
32452;BME280;45528;52.102;5.242;2022-08-20T06:24:06;101320.0;;;25.04;59.46
32452;BME280;45528;52.102;5.242;2022-08-20T06:25:43;101320.0;;;25.13;58.63
32452;BME280;45528;52.102;5.242;2022-08-20T06:27:21;101319.0;;;25.15;58.82
32452;BME280;45528;52.102;5.242;2022-08-20T06:30:34;101320.0;;;25.19;57.83
32452;BME280;45528;52.102;5.242;2022-08-20T06:32:11;101323.0;;;25.16;58.18
32452;BME280;45528;52.102;5.242;2022-08-20T06:33:48;101316.0;;;25.19;56.96
32452;BME280;45528;52.102;5.242;2022-08-20T06:37:01;101314.0;;;25.23;57.07
32452;BME280;45528;52.102;5.242;2022-08-20T06:38:37;101322.0;;;25.25;57.63
32452;BME280;45528;52.102;5.242;2022-08-20T06:40:17;101322.0;;;25.27;56.19
32452;BME280;45528;52.102;5.242;2022-08-20T06:42:00;101326.0;;;25.34;56.06
32452;BME280;45528;52.102;5.242;2022-08-20T06:45:14;101323.0;;;25.39;56.35
32452;BME280;45528;52.102;5.242;2022-08-20T06:46:59;101322.0;;;25.48;55.78
32452;BME280;45528;52.102;5.242;2022-08-20T06:48:36;101321.0;;;25.55;55.54
32452;BME280;45528;52.102;5.242;2022-08-20T06:50:16;101323.0;;;25.57;54.87
32452;BME280;45528;52.102;5.242;2022-08-20T06:53:34;101325.0;;;25.65;54.87
32452;BME280;45528;52.102;5.242;2022-08-20T06:55:10;101325.0;;;25.7;54.16
32452;BME280;45528;52.102;5.242;2022-08-20T06:56:46;101323.0;;;25.83;54.28
32452;BME280;45528;52.102;5.242;2022-08-20T07:00:03;101327.0;;;25.82;54.11
32452;BME280;45528;52.102;5.242;2022-08-20T07:01:41;101330.0;;;25.89;52.55
32452;BME280;45528;52.102;5.242;2022-08-20T07:03:17;101333.0;;;26.0;53.1
32452;BME280;45528;52.102;5.242;2022-08-20T07:04:54;101332.0;;;25.95;53.12
32452;BME280;45528;52.102;5.242;2022-08-20T07:08:07;101336.0;;;26.04;52.79
32452;BME280;45528;52.102;5.242;2022-08-20T07:09:44;101339.0;;;26.05;52.35
32452;BME280;45528;52.102;5.242;2022-08-20T07:11:20;101340.0;;;26.12;51.74
32452;BME280;45528;52.102;5.242;2022-08-20T07:14:35;101341.0;;;26.1;51.38
32452;BME280;45528;52.102;5.242;2022-08-20T07:16:11;101345.0;;;26.2;51.34
32452;BME280;45528;52.102;5.242;2022-08-20T07:17:49;101345.0;;;26.32;52.04
32452;BME280;45528;52.102;5.242;2022-08-20T07:19:28;101344.0;;;26.4;51.42
32452;BME280;45528;52.102;5.242;2022-08-20T07:22:41;101349.0;;;26.38;51.62
32452;BME280;45528;52.102;5.242;2022-08-20T07:24:18;101349.0;;;26.42;50.84
32452;BME280;45528;52.102;5.242;2022-08-20T07:25:54;101351.0;;;26.5;51.53
32452;BME280;45528;52.102;5.242;2022-08-20T07:29:08;101348.0;;;26.32;50.68
32452;BME280;45528;52.102;5.242;2022-08-20T07:33:37;101351.0;;;26.55;50.92
32452;BME280;45528;52.102;5.242;2022-08-20T07:35:17;101355.0;;;26.76;50.88
32452;BME280;45528;52.102;5.242;2022-08-20T07:36:57;101360.0;;;26.89;50.45
32452;BME280;45528;52.102;5.242;2022-08-20T07:38:34;101362.0;;;26.97;50.19
32452;BME280;45528;52.102;5.242;2022-08-20T07:42:02;101364.0;;;27.0;50.28
32452;BME280;45528;52.102;5.242;2022-08-20T07:43:39;101365.0;;;27.11;49.75
32452;BME280;45528;52.102;5.242;2022-08-20T07:45:17;101365.0;;;27.07;49.98
32452;BME280;45528;52.102;5.242;2022-08-20T07:46:53;101365.0;;;27.18;49.79
32452;BME280;45528;52.102;5.242;2022-08-20T07:50:08;101370.0;;;27.26;47.72
32452;BME280;45528;52.102;5.242;2022-08-20T07:51:46;101373.0;;;27.3;48.55
32452;BME280;45528;52.102;5.242;2022-08-20T07:53:23;101375.0;;;27.22;47.69
32452;BME280;45528;52.102;5.242;2022-08-20T07:55:00;101380.0;;;27.27;47.79
32452;BME280;45528;52.102;5.242;2022-08-20T07:58:16;101385.0;;;27.46;49.01
32452;BME280;45528;52.102;5.242;2022-08-20T07:59:56;101384.0;;;27.49;47.92
32452;BME280;45528;52.102;5.242;2022-08-20T08:01:35;101381.0;;;27.57;46.45
32452;BME280;45528;52.102;5.242;2022-08-20T08:04:48;101381.0;;;27.62;45.76
32452;BME280;45528;52.102;5.242;2022-08-20T08:06:26;101384.0;;;27.64;45.85
32452;BME280;45528;52.102;5.242;2022-08-20T08:08:06;101384.0;;;27.58;45.38
32452;BME280;45528;52.102;5.242;2022-08-20T08:09:44;101386.0;;;27.6;43.79
32452;BME280;45528;52.102;5.242;2022-08-20T08:12:59;101390.0;;;27.74;44.69
32452;BME280;45528;52.102;5.242;2022-08-20T08:14:39;101391.0;;;27.73;45.1
32452;BME280;45528;52.102;5.242;2022-08-20T08:16:20;101389.0;;;27.75;43.68
32452;BME280;45528;52.102;5.242;2022-08-20T08:19:43;101389.0;;;27.68;44.78
32452;BME280;45528;52.102;5.242;2022-08-20T08:21:24;101388.0;;;27.58;44.31
32452;BME280;45528;52.102;5.242;2022-08-20T08:23:00;101386.0;;;27.67;44.91
32452;BME280;45528;52.102;5.242;2022-08-20T08:24:37;101387.0;;;27.69;44.57
32452;BME280;45528;52.102;5.242;2022-08-20T08:27:52;101386.0;;;27.85;44.45
32452;BME280;45528;52.102;5.242;2022-08-20T08:29:28;101388.0;;;27.87;43.25
32452;BME280;45528;52.102;5.242;2022-08-20T08:31:05;101390.0;;;28.0;44.4
32452;BME280;45528;52.102;5.242;2022-08-20T08:33:29;101385.0;;;27.91;43.71
32452;BME280;45528;52.102;5.242;2022-08-20T08:35:08;101391.0;;;27.92;42.47
32452;BME280;45528;52.102;5.242;2022-08-20T08:38:22;101390.0;;;27.91;43.83
32452;BME280;45528;52.102;5.242;2022-08-20T08:40:00;101390.0;;;27.9;43.9
32452;BME280;45528;52.102;5.242;2022-08-20T08:41:40;101388.0;;;28.04;44.45
32452;BME280;45528;52.102;5.242;2022-08-20T08:43:22;101389.0;;;28.01;43.24
32452;BME280;45528;52.102;5.242;2022-08-20T08:46:39;101392.0;;;28.05;41.15
32452;BME280;45528;52.102;5.242;2022-08-20T08:48:18;101394.0;;;28.09;40.71
32452;BME280;45528;52.102;5.242;2022-08-20T08:49:56;101394.0;;;28.3;39.64
32452;BME280;45528;52.102;5.242;2022-08-20T08:51:36;101398.0;;;28.37;38.94
32452;BME280;45528;52.102;5.242;2022-08-20T08:55:09;101403.0;;;28.46;36.15
32452;BME280;45528;52.102;5.242;2022-08-20T08:56:51;101402.0;;;28.56;36.64
32452;BME280;45528;52.102;5.242;2022-08-20T08:58:27;101407.0;;;28.61;35.17
32452;BME280;45528;52.102;5.242;2022-08-20T09:00:08;101410.0;;;28.57;35.64
32452;BME280;45528;52.102;5.242;2022-08-20T09:03:30;101412.0;;;28.55;36.83
32452;BME280;45528;52.102;5.242;2022-08-20T09:05:12;101405.0;;;28.42;36.1
32452;BME280;45528;52.102;5.242;2022-08-20T09:06:52;101409.0;;;28.45;35.81
32452;BME280;45528;52.102;5.242;2022-08-20T09:08:32;101408.0;;;28.34;35.21
32452;BME280;45528;52.102;5.242;2022-08-20T09:11:53;101409.0;;;28.4;36.83
32452;BME280;45528;52.102;5.242;2022-08-20T09:13:30;101408.0;;;28.46;35.6
32452;BME280;45528;52.102;5.242;2022-08-20T09:15:06;101411.0;;;28.61;36.47
32452;BME280;45528;52.102;5.242;2022-08-20T09:16:43;101413.0;;;28.67;35.35
32452;BME280;45528;52.102;5.242;2022-08-20T09:19:56;101418.0;;;28.64;35.07
32452;BME280;45528;52.102;5.242;2022-08-20T09:21:32;101419.0;;;28.74;33.67
32452;BME280;45528;52.102;5.242;2022-08-20T09:23:09;101413.0;;;28.71;34.4
32452;BME280;45528;52.102;5.242;2022-08-20T09:26:24;101415.0;;;28.9;34.31
32452;BME280;45528;52.102;5.242;2022-08-20T09:28:00;101416.0;;;28.84;34.46
32452;BME280;45528;52.102;5.242;2022-08-20T09:29:37;101412.0;;;28.9;34.25
32452;BME280;45528;52.102;5.242;2022-08-20T09:31:14;101409.0;;;28.77;34.44
32452;BME280;45528;52.102;5.242;2022-08-20T09:34:27;101409.0;;;28.86;33.8
32452;BME280;45528;52.102;5.242;2022-08-20T09:36:03;101407.0;;;28.85;34.51
32452;BME280;45528;52.102;5.242;2022-08-20T09:37:40;101408.0;;;29.09;34.78
32452;BME280;45528;52.102;5.242;2022-08-20T09:40:52;101407.0;;;29.08;35.61
32452;BME280;45528;52.102;5.242;2022-08-20T09:42:31;101409.0;;;29.16;34.69
32452;BME280;45528;52.102;5.242;2022-08-20T09:44:10;101408.0;;;29.16;33.0
32452;BME280;45528;52.102;5.242;2022-08-20T09:47:23;101403.0;;;29.14;33.47
32452;BME280;45528;52.102;5.242;2022-08-20T09:48:59;101401.0;;;29.22;34.05
32452;BME280;45528;52.102;5.242;2022-08-20T09:50:37;101402.0;;;29.26;33.08
32452;BME280;45528;52.102;5.242;2022-08-20T09:52:24;101410.0;;;29.29;33.46
32452;BME280;45528;52.102;5.242;2022-08-20T09:55:43;101411.0;;;29.29;34.49
32452;BME280;45528;52.102;5.242;2022-08-20T09:57:20;101409.0;;;29.4;34.46
32452;BME280;45528;52.102;5.242;2022-08-20T09:58:58;101409.0;;;29.35;33.78
32452;BME280;45528;52.102;5.242;2022-08-20T10:00:34;101407.0;;;29.45;33.39
32452;BME280;45528;52.102;5.242;2022-08-20T10:03:48;101409.0;;;29.47;34.39
32452;BME280;45528;52.102;5.242;2022-08-20T10:05:24;101412.0;;;29.45;33.15
32452;BME280;45528;52.102;5.242;2022-08-20T10:07:00;101416.0;;;29.54;33.31
32452;BME280;45528;52.102;5.242;2022-08-20T10:10:14;101407.0;;;29.55;33.15
32452;BME280;45528;52.102;5.242;2022-08-20T10:11:50;101407.0;;;29.58;33.14
32452;BME280;45528;52.102;5.242;2022-08-20T10:18:50;101400.0;;;29.69;35.46
32452;BME280;45528;52.102;5.242;2022-08-20T10:20:27;101410.0;;;29.8;34.46
32452;BME280;45528;52.102;5.242;2022-08-20T10:22:04;101409.0;;;29.91;33.87
32452;BME280;45528;52.102;5.242;2022-08-20T10:23:41;101401.0;;;29.97;32.78
32452;BME280;45528;52.102;5.242;2022-08-20T10:26:55;101400.0;;;30.01;34.08
32452;BME280;45528;52.102;5.242;2022-08-20T10:28:32;101408.0;;;29.97;34.04
32452;BME280;45528;52.102;5.242;2022-08-20T10:30:09;101406.0;;;30.0;33.35
32452;BME280;45528;52.102;5.242;2022-08-20T10:33:24;101411.0;;;30.19;33.4
32452;BME280;45528;52.102;5.242;2022-08-20T10:35:03;101409.0;;;30.16;32.61
32452;BME280;45528;52.102;5.242;2022-08-20T10:36:40;101405.0;;;30.17;33.51
32452;BME280;45528;52.102;5.242;2022-08-20T10:38:18;101403.0;;;30.29;31.58
32452;BME280;45528;52.102;5.242;2022-08-20T10:41:31;101403.0;;;30.35;34.14
32452;BME280;45528;52.102;5.242;2022-08-20T10:43:07;101403.0;;;30.36;33.6
32452;BME280;45528;52.102;5.242;2022-08-20T10:44:44;101412.0;;;30.34;32.61
32452;BME280;45528;52.102;5.242;2022-08-20T10:47:57;101414.0;;;30.13;32.15
32452;BME280;45528;52.102;5.242;2022-08-20T10:49:34;101411.0;;;30.1;31.78
32452;BME280;45528;52.102;5.242;2022-08-20T10:51:10;101409.0;;;30.08;31.75
32452;BME280;45528;52.102;5.242;2022-08-20T10:54:23;101411.0;;;30.11;31.93
32452;BME280;45528;52.102;5.242;2022-08-20T10:55:59;101408.0;;;30.1;32.85
32452;BME280;45528;52.102;5.242;2022-08-20T10:57:37;101405.0;;;30.1;31.78
32452;BME280;45528;52.102;5.242;2022-08-20T10:59:14;101405.0;;;29.97;31.65
32452;BME280;45528;52.102;5.242;2022-08-20T11:02:28;101407.0;;;29.81;32.35
32452;BME280;45528;52.102;5.242;2022-08-20T11:04:05;101412.0;;;29.72;33.96
32452;BME280;45528;52.102;5.242;2022-08-20T11:05:41;101411.0;;;29.74;32.64
32452;BME280;45528;52.102;5.242;2022-08-20T11:08:59;101412.0;;;29.72;32.78
32452;BME280;45528;52.102;5.242;2022-08-20T11:10:38;101412.0;;;29.99;34.56
32452;BME280;45528;52.102;5.242;2022-08-20T11:12:16;101411.0;;;30.01;32.03
32452;BME280;45528;52.102;5.242;2022-08-20T11:13:53;101413.0;;;30.11;33.14
32452;BME280;45528;52.102;5.242;2022-08-20T11:17:12;101410.0;;;29.96;33.35
32452;BME280;45528;52.102;5.242;2022-08-20T11:18:54;101410.0;;;30.04;33.58